Kvitbjoern — LM9158 — position and weather

sailwx.info

Track history (hours):
 
Tides and Currents Weather Stations Pressure Air Temp Water Temp Dewpoint Dewpoint Depression Visibility Wind Speed Wind Dir Waves Ship Positions

Kvitbjoern

Last reported at 2016-Jul-23 15:33 UTC. Time now 2016-Jul-25 17:55 UTC.
Position N 66°22' E 012°21'.

Length 10 m.

Type: Fishing. MMSI: 257454420.

Date/timePositionNaut miles runAvg speedWind from/ knotsBaromVisibWave heightAir tempDewpointWater temp
2016-Jul-23 15:33N 66°22' E 012°21'3 1.1
2016-Jul-23 13:18N 66°25' E 012°23'3 2.4
2016-Jul-23 12:16N 66°22' E 012°21'0 0.0
2016-Jul-22 11:30N 66°22' E 012°21'0 0.0
2016-Jul-22 10:30N 66°22' E 012°21'0 0.0
2016-Jul-22 09:30N 66°22' E 012°21'0 0.0
2016-Jul-22 08:18N 66°22' E 012°21'0 0.0
2016-Jul-22 04:30N 66°22' E 012°21'0 0.0
2016-Jul-22 03:30N 66°22' E 012°21'0 0.0
2016-Jul-22 02:18N 66°22' E 012°21'0 0.0
2016-Jul-22 01:24N 66°22' E 012°21'0 0.0
2016-Jul-22 00:30N 66°22' E 012°21'0 0.0
2016-Jul-21 23:30N 66°22' E 012°21'0 0.0
2016-Jul-21 22:30N 66°22' E 012°21'0 0.0
2016-Jul-21 20:24N 66°22' E 012°21'3 0.4
2016-Jul-21 12:07N 66°25' E 012°16'0 0.5
2016-Jul-21 11:19N 66°24' E 012°15'3 3.9
2016-Jul-21 10:34N 66°23' E 012°22'0 0.0
2016-Jul-19 23:19N 66°22' E 012°21'3 3.9
2016-Jul-19 22:33N 66°25' E 012°17'2 2.0
2016-Jul-19 21:33N 66°25' E 012°22'1 0.6
2016-Jul-19 19:23N 66°26' E 012°20'0 0.2
2016-Jul-19 18:30N 66°26' E 012°20'0 0.2
2016-Jul-19 17:33N 66°26' E 012°20'0 0.1
2016-Jul-19 16:11N 66°26' E 012°20'2 2.5
2016-Jul-19 15:33N 66°25' E 012°24'2 2.4
2016-Jul-19 14:32N 66°23' E 012°23'1 0.5
2016-Jul-19 13:22N 66°22' E 012°21'  
2016-Jul-13 17:33N 66°22' E 012°21'0 0.0
2016-Jul-13 16:21N 66°22' E 012°21'  
Track history (hours):
 
Tides and Currents Weather Stations Pressure Air Temp Water Temp Dewpoint Dewpoint Depression Visibility Wind Speed Wind Dir Waves Ship Positions

Kvitbjoern

Last reported at 2016-Jul-23 15:33 UTC. Time now 2016-Jul-25 17:55 UTC.
Position N 66°22' E 012°21'.

Length 10 m.

Type: Fishing. MMSI: 257454420.

Date/timePositionNaut miles runAvg speedWind from/ knotsBaromVisibWave heightAir tempDewpointWater temp
2016-Jul-23 15:33N 66°22' E 012°21'3 1.1
2016-Jul-23 13:18N 66°25' E 012°23'3 2.4
2016-Jul-23 12:16N 66°22' E 012°21'0 0.0
2016-Jul-22 11:30N 66°22' E 012°21'0 0.0
2016-Jul-22 10:30N 66°22' E 012°21'0 0.0
2016-Jul-22 09:30N 66°22' E 012°21'0 0.0
2016-Jul-22 08:18N 66°22' E 012°21'0 0.0
2016-Jul-22 04:30N 66°22' E 012°21'0 0.0
2016-Jul-22 03:30N 66°22' E 012°21'0 0.0
2016-Jul-22 02:18N 66°22' E 012°21'0 0.0
2016-Jul-22 01:24N 66°22' E 012°21'0 0.0
2016-Jul-22 00:30N 66°22' E 012°21'0 0.0
2016-Jul-21 23:30N 66°22' E 012°21'0 0.0
2016-Jul-21 22:30N 66°22' E 012°21'0 0.0
2016-Jul-21 20:24N 66°22' E 012°21'3 0.4
2016-Jul-21 12:07N 66°25' E 012°16'0 0.5
2016-Jul-21 11:19N 66°24' E 012°15'3 3.9
2016-Jul-21 10:34N 66°23' E 012°22'0 0.0
2016-Jul-19 23:19N 66°22' E 012°21'3 3.9
2016-Jul-19 22:33N 66°25' E 012°17'2 2.0
2016-Jul-19 21:33N 66°25' E 012°22'1 0.6
2016-Jul-19 19:23N 66°26' E 012°20'0 0.2
2016-Jul-19 18:30N 66°26' E 012°20'0 0.2
2016-Jul-19 17:33N 66°26' E 012°20'0 0.1
2016-Jul-19 16:11N 66°26' E 012°20'2 2.5
2016-Jul-19 15:33N 66°25' E 012°24'2 2.4
2016-Jul-19 14:32N 66°23' E 012°23'1 0.5
2016-Jul-19 13:22N 66°22' E 012°21'  
2016-Jul-13 17:33N 66°22' E 012°21'0 0.0
2016-Jul-13 16:21N 66°22' E 012°21'  

Dump ship's entire track history